sensor_id;sensor_type;location;lat;lon;timestamp;P1;durP1;ratioP1;P2;durP2;ratioP2
54745;SDS011;40640;48.130;11.356;2023-08-24T00:03:44;13.25;;;6.10;;
54745;SDS011;40640;48.130;11.356;2023-08-24T00:07:50;8.27;;;6.60;;
54745;SDS011;40640;48.130;11.356;2023-08-24T00:11:54;9.17;;;5.70;;
54745;SDS011;40640;48.130;11.356;2023-08-24T00:15:57;12.15;;;5.85;;
54745;SDS011;40640;48.130;11.356;2023-08-24T00:20:00;11.07;;;5.93;;
54745;SDS011;40640;48.130;11.356;2023-08-24T00:24:07;13.38;;;7.03;;
54745;SDS011;40640;48.130;11.356;2023-08-24T00:28:10;11.52;;;6.80;;
54745;SDS011;40640;48.130;11.356;2023-08-24T00:32:13;12.27;;;6.93;;
54745;SDS011;40640;48.130;11.356;2023-08-24T00:36:16;12.23;;;6.57;;
54745;SDS011;40640;48.130;11.356;2023-08-24T00:40:22;11.10;;;6.22;;
54745;SDS011;40640;48.130;11.356;2023-08-24T00:44:26;9.40;;;6.53;;
54745;SDS011;40640;48.130;11.356;2023-08-24T00:48:29;11.18;;;6.55;;
54745;SDS011;40640;48.130;11.356;2023-08-24T00:52:33;12.57;;;6.30;;
54745;SDS011;40640;48.130;11.356;2023-08-24T00:56:41;8.85;;;6.75;;
54745;SDS011;40640;48.130;11.356;2023-08-24T01:00:44;9.20;;;7.35;;
54745;SDS011;40640;48.130;11.356;2023-08-24T01:04:47;10.57;;;6.63;;
54745;SDS011;40640;48.130;11.356;2023-08-24T01:08:50;13.60;;;6.97;;
54745;SDS011;40640;48.130;11.356;2023-08-24T01:12:59;8.77;;;6.97;;
54745;SDS011;40640;48.130;11.356;2023-08-24T01:17:09;14.38;;;8.18;;
54745;SDS011;40640;48.130;11.356;2023-08-24T01:21:16;10.85;;;7.65;;
54745;SDS011;40640;48.130;11.356;2023-08-24T01:25:24;8.32;;;7.20;;
54745;SDS011;40640;48.130;11.356;2023-08-24T01:29:38;10.43;;;7.25;;
54745;SDS011;40640;48.130;11.356;2023-08-24T01:33:43;13.82;;;6.95;;
54745;SDS011;40640;48.130;11.356;2023-08-24T01:37:46;14.30;;;7.85;;
54745;SDS011;40640;48.130;11.356;2023-08-24T01:41:52;12.57;;;7.45;;
54745;SDS011;40640;48.130;11.356;2023-08-24T01:45:59;13.57;;;7.87;;
54745;SDS011;40640;48.130;11.356;2023-08-24T01:50:04;11.73;;;7.75;;
54745;SDS011;40640;48.130;11.356;2023-08-24T01:54:08;9.45;;;7.65;;
54745;SDS011;40640;48.130;11.356;2023-08-24T01:58:11;11.35;;;7.70;;
54745;SDS011;40640;48.130;11.356;2023-08-24T02:02:16;8.77;;;7.35;;
54745;SDS011;40640;48.130;11.356;2023-08-24T02:06:19;8.68;;;6.88;;
54745;SDS011;40640;48.130;11.356;2023-08-24T02:10:23;12.07;;;7.65;;
54745;SDS011;40640;48.130;11.356;2023-08-24T02:14:26;12.70;;;7.43;;
54745;SDS011;40640;48.130;11.356;2023-08-24T02:18:32;11.82;;;7.35;;
54745;SDS011;40640;48.130;11.356;2023-08-24T02:22:35;11.88;;;7.32;;
54745;SDS011;40640;48.130;11.356;2023-08-24T02:26:38;13.77;;;7.20;;
54745;SDS011;40640;48.130;11.356;2023-08-24T02:30:41;8.73;;;7.47;;
54745;SDS011;40640;48.130;11.356;2023-08-24T02:34:45;11.63;;;8.65;;
54745;SDS011;40640;48.130;11.356;2023-08-24T02:38:48;13.88;;;7.88;;
54745;SDS011;40640;48.130;11.356;2023-08-24T02:42:52;11.40;;;8.10;;
54745;SDS011;40640;48.130;11.356;2023-08-24T02:46:55;16.67;;;8.25;;
54745;SDS011;40640;48.130;11.356;2023-08-24T02:51:01;10.38;;;7.78;;
54745;SDS011;40640;48.130;11.356;2023-08-24T02:55:05;9.70;;;7.65;;
54745;SDS011;40640;48.130;11.356;2023-08-24T02:59:09;13.05;;;7.78;;
54745;SDS011;40640;48.130;11.356;2023-08-24T03:03:12;9.40;;;7.30;;
54745;SDS011;40640;48.130;11.356;2023-08-24T03:07:17;15.02;;;8.27;;
54745;SDS011;40640;48.130;11.356;2023-08-24T03:11:21;10.67;;;7.50;;
54745;SDS011;40640;48.130;11.356;2023-08-24T03:15:25;8.80;;;7.90;;
54745;SDS011;40640;48.130;11.356;2023-08-24T03:19:28;8.88;;;7.20;;
54745;SDS011;40640;48.130;11.356;2023-08-24T03:23:33;13.48;;;7.50;;
54745;SDS011;40640;48.130;11.356;2023-08-24T03:27:37;9.60;;;7.25;;
54745;SDS011;40640;48.130;11.356;2023-08-24T03:31:40;11.82;;;7.68;;
54745;SDS011;40640;48.130;11.356;2023-08-24T03:35:43;11.00;;;7.82;;
54745;SDS011;40640;48.130;11.356;2023-08-24T03:39:47;14.45;;;8.18;;
54745;SDS011;40640;48.130;11.356;2023-08-24T03:43:52;12.70;;;8.55;;
54745;SDS011;40640;48.130;11.356;2023-08-24T03:47:55;9.88;;;7.10;;
54745;SDS011;40640;48.130;11.356;2023-08-24T03:52:00;10.13;;;7.57;;
54745;SDS011;40640;48.130;11.356;2023-08-24T03:56:05;14.88;;;7.47;;
54745;SDS011;40640;48.130;11.356;2023-08-24T04:00:09;12.05;;;7.40;;
54745;SDS011;40640;48.130;11.356;2023-08-24T04:04:15;10.88;;;7.55;;
54745;SDS011;40640;48.130;11.356;2023-08-24T04:08:18;12.32;;;7.65;;
54745;SDS011;40640;48.130;11.356;2023-08-24T04:12:24;11.25;;;7.50;;
54745;SDS011;40640;48.130;11.356;2023-08-24T04:16:27;14.93;;;7.90;;
54745;SDS011;40640;48.130;11.356;2023-08-24T04:20:30;12.00;;;8.30;;
54745;SDS011;40640;48.130;11.356;2023-08-24T04:24:33;10.30;;;7.85;;
54745;SDS011;40640;48.130;11.356;2023-08-24T04:28:37;14.95;;;8.15;;
54745;SDS011;40640;48.130;11.356;2023-08-24T04:32:40;12.63;;;8.88;;
54745;SDS011;40640;48.130;11.356;2023-08-24T04:36:43;13.57;;;8.55;;
54745;SDS011;40640;48.130;11.356;2023-08-24T04:40:47;10.48;;;7.60;;
54745;SDS011;40640;48.130;11.356;2023-08-24T04:44:53;11.85;;;7.45;;
54745;SDS011;40640;48.130;11.356;2023-08-24T04:48:57;11.90;;;7.83;;
54745;SDS011;40640;48.130;11.356;2023-08-24T04:53:00;12.18;;;8.02;;
54745;SDS011;40640;48.130;11.356;2023-08-24T04:57:03;11.55;;;7.05;;
54745;SDS011;40640;48.130;11.356;2023-08-24T05:01:09;10.70;;;7.68;;
54745;SDS011;40640;48.130;11.356;2023-08-24T05:05:14;11.85;;;7.97;;
54745;SDS011;40640;48.130;11.356;2023-08-24T05:09:17;10.52;;;7.30;;
54745;SDS011;40640;48.130;11.356;2023-08-24T05:13:19;10.00;;;7.15;;
54745;SDS011;40640;48.130;11.356;2023-08-24T05:17:25;12.32;;;7.07;;
54745;SDS011;40640;48.130;11.356;2023-08-24T05:21:29;12.55;;;8.07;;
54745;SDS011;40640;48.130;11.356;2023-08-24T05:25:32;12.23;;;7.75;;
54745;SDS011;40640;48.130;11.356;2023-08-24T05:29:35;15.05;;;8.35;;
54745;SDS011;40640;48.130;11.356;2023-08-24T05:33:40;12.85;;;9.27;;
54745;SDS011;40640;48.130;11.356;2023-08-24T05:37:42;10.18;;;6.95;;
54745;SDS011;40640;48.130;11.356;2023-08-24T05:41:45;8.55;;;7.60;;
54745;SDS011;40640;48.130;11.356;2023-08-24T05:45:48;12.90;;;7.72;;
54745;SDS011;40640;48.130;11.356;2023-08-24T05:49:53;9.43;;;7.75;;
54745;SDS011;40640;48.130;11.356;2023-08-24T05:53:56;10.48;;;6.97;;
54745;SDS011;40640;48.130;11.356;2023-08-24T05:58:00;12.27;;;7.30;;
54745;SDS011;40640;48.130;11.356;2023-08-24T06:02:02;11.85;;;8.20;;
54745;SDS011;40640;48.130;11.356;2023-08-24T06:06:07;11.57;;;7.95;;
54745;SDS011;40640;48.130;11.356;2023-08-24T06:10:11;7.70;;;6.53;;
54745;SDS011;40640;48.130;11.356;2023-08-24T06:14:14;8.80;;;7.53;;
54745;SDS011;40640;48.130;11.356;2023-08-24T06:18:17;15.38;;;7.22;;
54745;SDS011;40640;48.130;11.356;2023-08-24T06:22:22;9.25;;;6.35;;
54745;SDS011;40640;48.130;11.356;2023-08-24T06:26:25;9.02;;;6.35;;
54745;SDS011;40640;48.130;11.356;2023-08-24T06:30:27;13.77;;;6.15;;
54745;SDS011;40640;48.130;11.356;2023-08-24T06:34:34;14.75;;;6.22;;
54745;SDS011;40640;48.130;11.356;2023-08-24T06:38:38;11.30;;;6.18;;
54745;SDS011;40640;48.130;11.356;2023-08-24T06:46:43;10.05;;;5.15;;
54745;SDS011;40640;48.130;11.356;2023-08-24T06:50:47;10.20;;;5.68;;
54745;SDS011;40640;48.130;11.356;2023-08-24T06:54:52;10.43;;;5.35;;
54745;SDS011;40640;48.130;11.356;2023-08-24T06:58:57;9.38;;;4.68;;
54745;SDS011;40640;48.130;11.356;2023-08-24T07:03:00;12.00;;;5.47;;
54745;SDS011;40640;48.130;11.356;2023-08-24T07:07:03;8.93;;;4.97;;
54745;SDS011;40640;48.130;11.356;2023-08-24T07:11:07;7.30;;;5.13;;
54745;SDS011;40640;48.130;11.356;2023-08-24T07:15:10;9.00;;;4.38;;
54745;SDS011;40640;48.130;11.356;2023-08-24T07:19:13;6.93;;;4.75;;
54745;SDS011;40640;48.130;11.356;2023-08-24T07:23:18;6.68;;;4.32;;
54745;SDS011;40640;48.130;11.356;2023-08-24T07:27:22;6.15;;;4.63;;
54745;SDS011;40640;48.130;11.356;2023-08-24T07:31:25;9.25;;;5.60;;
54745;SDS011;40640;48.130;11.356;2023-08-24T07:35:28;6.47;;;4.68;;
54745;SDS011;40640;48.130;11.356;2023-08-24T07:39:31;7.82;;;4.63;;
54745;SDS011;40640;48.130;11.356;2023-08-24T07:43:36;8.07;;;4.55;;
54745;SDS011;40640;48.130;11.356;2023-08-24T07:47:39;7.13;;;4.18;;
54745;SDS011;40640;48.130;11.356;2023-08-24T07:51:42;5.63;;;4.45;;
54745;SDS011;40640;48.130;11.356;2023-08-24T07:55:45;8.30;;;4.68;;
54745;SDS011;40640;48.130;11.356;2023-08-24T07:59:50;10.73;;;5.40;;
54745;SDS011;40640;48.130;11.356;2023-08-24T08:03:52;8.65;;;4.63;;
54745;SDS011;40640;48.130;11.356;2023-08-24T08:07:55;8.55;;;4.65;;
54745;SDS011;40640;48.130;11.356;2023-08-24T08:11:58;5.47;;;4.60;;
54745;SDS011;40640;48.130;11.356;2023-08-24T08:16:03;12.27;;;5.65;;
54745;SDS011;40640;48.130;11.356;2023-08-24T08:20:07;10.60;;;5.68;;
54745;SDS011;40640;48.130;11.356;2023-08-24T08:24:10;6.43;;;5.20;;
54745;SDS011;40640;48.130;11.356;2023-08-24T08:28:25;7.35;;;5.85;;
54745;SDS011;40640;48.130;11.356;2023-08-24T08:32:29;8.70;;;6.13;;
54745;SDS011;40640;48.130;11.356;2023-08-24T08:36:33;7.03;;;5.28;;
54745;SDS011;40640;48.130;11.356;2023-08-24T08:40:37;11.57;;;5.57;;
54745;SDS011;40640;48.130;11.356;2023-08-24T08:44:40;8.30;;;5.63;;
54745;SDS011;40640;48.130;11.356;2023-08-24T08:48:46;8.73;;;7.10;;
54745;SDS011;40640;48.130;11.356;2023-08-24T08:52:51;8.27;;;6.70;;
54745;SDS011;40640;48.130;11.356;2023-08-24T08:56:55;6.43;;;5.57;;
54745;SDS011;40640;48.130;11.356;2023-08-24T09:00:58;8.82;;;5.30;;
54745;SDS011;40640;48.130;11.356;2023-08-24T09:05:07;7.82;;;4.85;;
54745;SDS011;40640;48.130;11.356;2023-08-24T09:09:10;8.13;;;4.82;;
54745;SDS011;40640;48.130;11.356;2023-08-24T09:13:13;9.68;;;4.68;;
54745;SDS011;40640;48.130;11.356;2023-08-24T09:17:20;11.50;;;4.65;;
54745;SDS011;40640;48.130;11.356;2023-08-24T09:21:25;8.75;;;4.35;;
54745;SDS011;40640;48.130;11.356;2023-08-24T09:25:27;8.63;;;6.63;;
54745;SDS011;40640;48.130;11.356;2023-08-24T09:29:32;7.97;;;4.57;;
54745;SDS011;40640;48.130;11.356;2023-08-24T09:33:42;8.98;;;4.75;;
54745;SDS011;40640;48.130;11.356;2023-08-24T09:37:48;9.77;;;4.75;;
54745;SDS011;40640;48.130;11.356;2023-08-24T09:41:53;12.68;;;5.10;;
54745;SDS011;40640;48.130;11.356;2023-08-24T09:45:56;10.65;;;4.70;;
54745;SDS011;40640;48.130;11.356;2023-08-24T09:50:00;6.95;;;4.57;;
54745;SDS011;40640;48.130;11.356;2023-08-24T09:54:05;5.75;;;4.45;;
54745;SDS011;40640;48.130;11.356;2023-08-24T09:58:10;11.82;;;4.50;;
54745;SDS011;40640;48.130;11.356;2023-08-24T10:02:14;9.23;;;4.70;;
54745;SDS011;40640;48.130;11.356;2023-08-24T10:06:21;10.25;;;4.72;;
54745;SDS011;40640;48.130;11.356;2023-08-24T10:10:27;10.55;;;4.85;;
54745;SDS011;40640;48.130;11.356;2023-08-24T10:14:36;7.88;;;4.82;;
54745;SDS011;40640;48.130;11.356;2023-08-24T10:18:45;14.25;;;5.05;;
54745;SDS011;40640;48.130;11.356;2023-08-24T10:22:49;7.57;;;4.47;;
54745;SDS011;40640;48.130;11.356;2023-08-24T10:26:54;9.20;;;4.90;;
54745;SDS011;40640;48.130;11.356;2023-08-24T10:30:59;8.25;;;4.53;;
54745;SDS011;40640;48.130;11.356;2023-08-24T10:35:04;11.63;;;4.35;;
54745;SDS011;40640;48.130;11.356;2023-08-24T10:39:07;7.65;;;4.30;;
54745;SDS011;40640;48.130;11.356;2023-08-24T10:43:13;11.95;;;4.93;;
54745;SDS011;40640;48.130;11.356;2023-08-24T10:47:18;7.50;;;4.18;;
54745;SDS011;40640;48.130;11.356;2023-08-24T10:51:22;7.65;;;4.70;;
54745;SDS011;40640;48.130;11.356;2023-08-24T10:55:28;13.27;;;4.28;;
54745;SDS011;40640;48.130;11.356;2023-08-24T10:59:35;8.15;;;4.50;;
54745;SDS011;40640;48.130;11.356;2023-08-24T11:03:54;8.35;;;4.43;;
54745;SDS011;40640;48.130;11.356;2023-08-24T11:07:58;11.60;;;3.83;;
54745;SDS011;40640;48.130;11.356;2023-08-24T11:12:03;23.73;;;4.20;;
54745;SDS011;40640;48.130;11.356;2023-08-24T11:16:08;10.17;;;4.40;;
54745;SDS011;40640;48.130;11.356;2023-08-24T11:20:42;9.00;;;4.30;;
54745;SDS011;40640;48.130;11.356;2023-08-24T11:24:46;7.70;;;4.55;;
54745;SDS011;40640;48.130;11.356;2023-08-24T11:28:49;11.40;;;5.18;;
54745;SDS011;40640;48.130;11.356;2023-08-24T11:32:57;10.48;;;5.50;;
54745;SDS011;40640;48.130;11.356;2023-08-24T11:37:01;9.75;;;5.20;;
54745;SDS011;40640;48.130;11.356;2023-08-24T11:41:10;9.88;;;5.22;;
54745;SDS011;40640;48.130;11.356;2023-08-24T11:45:13;12.77;;;5.57;;
54745;SDS011;40640;48.130;11.356;2023-08-24T11:49:18;11.93;;;6.97;;
54745;SDS011;40640;48.130;11.356;2023-08-24T11:53:21;14.20;;;7.68;;
54745;SDS011;40640;48.130;11.356;2023-08-24T11:57:25;12.18;;;7.10;;
54745;SDS011;40640;48.130;11.356;2023-08-24T12:01:29;13.27;;;6.75;;
54745;SDS011;40640;48.130;11.356;2023-08-24T12:05:34;16.38;;;7.32;;
54745;SDS011;40640;48.130;11.356;2023-08-24T12:09:37;10.85;;;6.32;;
54745;SDS011;40640;48.130;11.356;2023-08-24T12:13:44;13.65;;;5.93;;
54745;SDS011;40640;48.130;11.356;2023-08-24T12:17:48;12.82;;;6.18;;
54745;SDS011;40640;48.130;11.356;2023-08-24T12:21:52;16.55;;;5.80;;
54745;SDS011;40640;48.130;11.356;2023-08-24T12:25:55;13.82;;;5.47;;
54745;SDS011;40640;48.130;11.356;2023-08-24T12:29:59;20.40;;;5.45;;
54745;SDS011;40640;48.130;11.356;2023-08-24T12:34:04;19.25;;;5.95;;
54745;SDS011;40640;48.130;11.356;2023-08-24T12:38:11;18.90;;;5.10;;
54745;SDS011;40640;48.130;11.356;2023-08-24T12:42:14;17.65;;;6.15;;
54745;SDS011;40640;48.130;11.356;2023-08-24T12:46:17;15.85;;;4.97;;
54745;SDS011;40640;48.130;11.356;2023-08-24T12:50:20;11.25;;;5.00;;
54745;SDS011;40640;48.130;11.356;2023-08-24T12:54:24;19.75;;;5.80;;
54745;SDS011;40640;48.130;11.356;2023-08-24T12:58:27;13.02;;;4.82;;
54745;SDS011;40640;48.130;11.356;2023-08-24T13:02:30;13.40;;;4.90;;
54745;SDS011;40640;48.130;11.356;2023-08-24T13:06:39;12.57;;;4.93;;
54745;SDS011;40640;48.130;11.356;2023-08-24T13:10:44;11.55;;;4.75;;
54745;SDS011;40640;48.130;11.356;2023-08-24T13:14:46;13.85;;;5.20;;
54745;SDS011;40640;48.130;11.356;2023-08-24T13:18:49;17.05;;;5.03;;
54745;SDS011;40640;48.130;11.356;2023-08-24T13:22:52;12.75;;;4.57;;
54745;SDS011;40640;48.130;11.356;2023-08-24T13:26:57;13.40;;;4.18;;
54745;SDS011;40640;48.130;11.356;2023-08-24T13:31:00;16.88;;;4.85;;
54745;SDS011;40640;48.130;11.356;2023-08-24T13:35:03;20.98;;;4.57;;
54745;SDS011;40640;48.130;11.356;2023-08-24T13:39:09;9.40;;;4.03;;
54745;SDS011;40640;48.130;11.356;2023-08-24T13:43:13;12.38;;;4.60;;
54745;SDS011;40640;48.130;11.356;2023-08-24T13:47:16;16.50;;;4.63;;
54745;SDS011;40640;48.130;11.356;2023-08-24T13:51:19;15.90;;;4.22;;
54745;SDS011;40640;48.130;11.356;2023-08-24T13:55:22;23.85;;;4.80;;
54745;SDS011;40640;48.130;11.356;2023-08-24T13:59:27;15.77;;;4.75;;
54745;SDS011;40640;48.130;11.356;2023-08-24T14:03:30;13.90;;;4.15;;
54745;SDS011;40640;48.130;11.356;2023-08-24T14:07:33;10.25;;;4.63;;
54745;SDS011;40640;48.130;11.356;2023-08-24T14:11:36;17.60;;;4.77;;
54745;SDS011;40640;48.130;11.356;2023-08-24T14:15:42;15.27;;;4.60;;
54745;SDS011;40640;48.130;11.356;2023-08-24T14:19:45;17.10;;;4.40;;
54745;SDS011;40640;48.130;11.356;2023-08-24T14:27:52;22.48;;;4.53;;
54745;SDS011;40640;48.130;11.356;2023-08-24T14:32:07;19.50;;;4.32;;
54745;SDS011;40640;48.130;11.356;2023-08-24T14:36:10;19.17;;;4.72;;
54745;SDS011;40640;48.130;11.356;2023-08-24T14:40:13;31.13;;;5.20;;
54745;SDS011;40640;48.130;11.356;2023-08-24T14:44:17;22.70;;;5.17;;
54745;SDS011;40640;48.130;11.356;2023-08-24T14:48:22;30.13;;;4.68;;
54745;SDS011;40640;48.130;11.356;2023-08-24T14:52:25;20.83;;;4.45;;
54745;SDS011;40640;48.130;11.356;2023-08-24T14:56:28;20.77;;;4.38;;
54745;SDS011;40640;48.130;11.356;2023-08-24T15:00:31;17.15;;;4.13;;
54745;SDS011;40640;48.130;11.356;2023-08-24T15:04:36;25.45;;;3.78;;
54745;SDS011;40640;48.130;11.356;2023-08-24T15:08:38;23.30;;;4.13;;
54745;SDS011;40640;48.130;11.356;2023-08-24T15:12:42;18.15;;;3.75;;
54745;SDS011;40640;48.130;11.356;2023-08-24T15:16:46;21.05;;;4.68;;
54745;SDS011;40640;48.130;11.356;2023-08-24T15:20:50;26.42;;;5.65;;
54745;SDS011;40640;48.130;11.356;2023-08-24T15:24:53;19.52;;;5.05;;
54745;SDS011;40640;48.130;11.356;2023-08-24T15:29:07;16.50;;;4.20;;
54745;SDS011;40640;48.130;11.356;2023-08-24T15:33:12;15.03;;;3.93;;
54745;SDS011;40640;48.130;11.356;2023-08-24T15:37:16;13.60;;;4.28;;
54745;SDS011;40640;48.130;11.356;2023-08-24T15:41:19;28.20;;;4.73;;
54745;SDS011;40640;48.130;11.356;2023-08-24T15:45:22;25.73;;;5.07;;
54745;SDS011;40640;48.130;11.356;2023-08-24T15:49:25;25.20;;;4.65;;
54745;SDS011;40640;48.130;11.356;2023-08-24T15:53:29;23.85;;;4.85;;
54745;SDS011;40640;48.130;11.356;2023-08-24T15:57:32;20.08;;;5.38;;
54745;SDS011;40640;48.130;11.356;2023-08-24T16:01:35;29.85;;;5.22;;
54745;SDS011;40640;48.130;11.356;2023-08-24T16:05:38;16.20;;;3.95;;
54745;SDS011;40640;48.130;11.356;2023-08-24T16:09:42;22.13;;;5.78;;
54745;SDS011;40640;48.130;11.356;2023-08-24T16:13:45;24.43;;;4.67;;
54745;SDS011;40640;48.130;11.356;2023-08-24T16:17:48;20.33;;;4.15;;
54745;SDS011;40640;48.130;11.356;2023-08-24T16:21:52;20.55;;;4.55;;
54745;SDS011;40640;48.130;11.356;2023-08-24T16:25:56;23.88;;;4.28;;
54745;SDS011;40640;48.130;11.356;2023-08-24T16:29:59;27.00;;;5.23;;
54745;SDS011;40640;48.130;11.356;2023-08-24T16:34:02;17.80;;;5.22;;
54745;SDS011;40640;48.130;11.356;2023-08-24T16:38:05;18.83;;;4.30;;
54745;SDS011;40640;48.130;11.356;2023-08-24T16:42:09;13.95;;;5.40;;
54745;SDS011;40640;48.130;11.356;2023-08-24T16:46:12;11.80;;;4.88;;
54745;SDS011;40640;48.130;11.356;2023-08-24T16:50:15;18.48;;;5.25;;
54745;SDS011;40640;48.130;11.356;2023-08-24T16:54:18;15.35;;;5.63;;
54745;SDS011;40640;48.130;11.356;2023-08-24T16:58:23;11.45;;;5.43;;
54745;SDS011;40640;48.130;11.356;2023-08-24T17:02:25;14.75;;;5.32;;
54745;SDS011;40640;48.130;11.356;2023-08-24T17:06:28;12.98;;;5.78;;
54745;SDS011;40640;48.130;11.356;2023-08-24T17:10:36;10.02;;;5.53;;
54745;SDS011;40640;48.130;11.356;2023-08-24T17:14:42;9.32;;;6.00;;
54745;SDS011;40640;48.130;11.356;2023-08-24T17:18:45;9.88;;;5.68;;
54745;SDS011;40640;48.130;11.356;2023-08-24T17:22:47;24.52;;;5.85;;
54745;SDS011;40640;48.130;11.356;2023-08-24T17:26:50;15.65;;;6.00;;
54745;SDS011;40640;48.130;11.356;2023-08-24T17:30:55;11.48;;;5.85;;
54745;SDS011;40640;48.130;11.356;2023-08-24T17:34:58;12.70;;;5.70;;
54745;SDS011;40640;48.130;11.356;2023-08-24T17:39:01;9.38;;;6.30;;
54745;SDS011;40640;48.130;11.356;2023-08-24T17:43:09;9.68;;;5.95;;
54745;SDS011;40640;48.130;11.356;2023-08-24T17:47:13;19.38;;;5.85;;
54745;SDS011;40640;48.130;11.356;2023-08-24T17:51:16;14.25;;;5.85;;
54745;SDS011;40640;48.130;11.356;2023-08-24T17:55:19;12.73;;;6.00;;
54745;SDS011;40640;48.130;11.356;2023-08-24T17:59:22;14.40;;;6.18;;
54745;SDS011;40640;48.130;11.356;2023-08-24T18:03:26;10.73;;;5.90;;
54745;SDS011;40640;48.130;11.356;2023-08-24T18:07:29;11.55;;;6.68;;
54745;SDS011;40640;48.130;11.356;2023-08-24T18:11:33;11.70;;;5.75;;
54745;SDS011;40640;48.130;11.356;2023-08-24T18:15:36;15.70;;;5.95;;
54745;SDS011;40640;48.130;11.356;2023-08-24T18:19:42;14.02;;;6.25;;
54745;SDS011;40640;48.130;11.356;2023-08-24T18:23:45;16.13;;;6.15;;
54745;SDS011;40640;48.130;11.356;2023-08-24T18:27:48;9.75;;;5.80;;
54745;SDS011;40640;48.130;11.356;2023-08-24T18:31:51;16.88;;;6.28;;
54745;SDS011;40640;48.130;11.356;2023-08-24T18:35:56;14.80;;;5.60;;
54745;SDS011;40640;48.130;11.356;2023-08-24T18:39:59;16.42;;;6.78;;
54745;SDS011;40640;48.130;11.356;2023-08-24T18:44:02;6.93;;;5.43;;
54745;SDS011;40640;48.130;11.356;2023-08-24T18:48:05;12.05;;;5.70;;
54745;SDS011;40640;48.130;11.356;2023-08-24T18:52:10;12.90;;;6.15;;
54745;SDS011;40640;48.130;11.356;2023-08-24T18:56:13;20.10;;;5.68;;
54745;SDS011;40640;48.130;11.356;2023-08-24T19:00:16;18.35;;;5.75;;
54745;SDS011;40640;48.130;11.356;2023-08-24T19:04:19;17.80;;;6.18;;
54745;SDS011;40640;48.130;11.356;2023-08-24T19:08:24;12.98;;;6.10;;
54745;SDS011;40640;48.130;11.356;2023-08-24T19:12:26;9.57;;;6.05;;
54745;SDS011;40640;48.130;11.356;2023-08-24T19:16:29;10.82;;;6.05;;
54745;SDS011;40640;48.130;11.356;2023-08-24T19:20:32;11.13;;;6.00;;
54745;SDS011;40640;48.130;11.356;2023-08-24T19:24:37;12.35;;;6.15;;
54745;SDS011;40640;48.130;11.356;2023-08-24T19:28:39;12.02;;;5.95;;
54745;SDS011;40640;48.130;11.356;2023-08-24T19:32:43;17.42;;;6.95;;
54745;SDS011;40640;48.130;11.356;2023-08-24T19:36:46;14.43;;;6.88;;
54745;SDS011;40640;48.130;11.356;2023-08-24T19:40:50;10.95;;;6.05;;
54745;SDS011;40640;48.130;11.356;2023-08-24T19:44:53;15.23;;;6.57;;
54745;SDS011;40640;48.130;11.356;2023-08-24T19:48:56;9.32;;;6.28;;
54745;SDS011;40640;48.130;11.356;2023-08-24T19:52:59;14.52;;;6.68;;
54745;SDS011;40640;48.130;11.356;2023-08-24T19:57:04;10.95;;;6.13;;
54745;SDS011;40640;48.130;11.356;2023-08-24T20:01:09;9.75;;;6.53;;
54745;SDS011;40640;48.130;11.356;2023-08-24T20:05:14;12.05;;;7.03;;
54745;SDS011;40640;48.130;11.356;2023-08-24T20:09:17;11.60;;;5.78;;
54745;SDS011;40640;48.130;11.356;2023-08-24T20:13:21;13.82;;;6.13;;
54745;SDS011;40640;48.130;11.356;2023-08-24T20:17:27;12.82;;;6.82;;
54745;SDS011;40640;48.130;11.356;2023-08-24T20:21:31;15.98;;;6.57;;
54745;SDS011;40640;48.130;11.356;2023-08-24T20:25:34;10.20;;;7.10;;
54745;SDS011;40640;48.130;11.356;2023-08-24T20:29:38;9.70;;;6.43;;
54745;SDS011;40640;48.130;11.356;2023-08-24T20:33:41;32.65;;;3.85;;
54745;SDS011;40640;48.130;11.356;2023-08-24T20:37:44;21.58;;;2.78;;
54745;SDS011;40640;48.130;11.356;2023-08-24T20:41:47;16.60;;;2.60;;
54745;SDS011;40640;48.130;11.356;2023-08-24T20:45:51;14.45;;;2.50;;
54745;SDS011;40640;48.130;11.356;2023-08-24T20:49:55;11.43;;;2.67;;
54745;SDS011;40640;48.130;11.356;2023-08-24T20:53:58;13.07;;;2.95;;
54745;SDS011;40640;48.130;11.356;2023-08-24T20:58:01;18.23;;;3.80;;
54745;SDS011;40640;48.130;11.356;2023-08-24T21:02:06;9.50;;;3.25;;
54745;SDS011;40640;48.130;11.356;2023-08-24T21:06:09;13.32;;;3.30;;
54745;SDS011;40640;48.130;11.356;2023-08-24T21:10:12;16.05;;;3.13;;
54745;SDS011;40640;48.130;11.356;2023-08-24T21:14:15;8.60;;;2.50;;
54745;SDS011;40640;48.130;11.356;2023-08-24T21:18:19;13.32;;;3.20;;
54745;SDS011;40640;48.130;11.356;2023-08-24T21:22:22;13.50;;;3.13;;
54745;SDS011;40640;48.130;11.356;2023-08-24T21:26:25;8.18;;;2.80;;
54745;SDS011;40640;48.130;11.356;2023-08-24T21:30:28;15.25;;;3.42;;
54745;SDS011;40640;48.130;11.356;2023-08-24T21:34:32;11.98;;;2.83;;
54745;SDS011;40640;48.130;11.356;2023-08-24T21:38:35;11.40;;;2.90;;
54745;SDS011;40640;48.130;11.356;2023-08-24T21:42:38;12.30;;;3.08;;
54745;SDS011;40640;48.130;11.356;2023-08-24T21:46:41;12.68;;;3.45;;
54745;SDS011;40640;48.130;11.356;2023-08-24T21:50:45;11.90;;;3.83;;
54745;SDS011;40640;48.130;11.356;2023-08-24T21:54:48;11.85;;;2.83;;
54745;SDS011;40640;48.130;11.356;2023-08-24T21:58:51;8.77;;;3.13;;
54745;SDS011;40640;48.130;11.356;2023-08-24T22:02:54;9.02;;;3.25;;
54745;SDS011;40640;48.130;11.356;2023-08-24T22:06:58;13.75;;;3.50;;
54745;SDS011;40640;48.130;11.356;2023-08-24T22:11:01;9.57;;;3.33;;
54745;SDS011;40640;48.130;11.356;2023-08-24T22:15:04;9.85;;;3.50;;
54745;SDS011;40640;48.130;11.356;2023-08-24T22:19:08;17.55;;;3.92;;
54745;SDS011;40640;48.130;11.356;2023-08-24T22:23:26;10.20;;;2.97;;
54745;SDS011;40640;48.130;11.356;2023-08-24T22:27:29;14.30;;;3.53;;
54745;SDS011;40640;48.130;11.356;2023-08-24T22:31:34;12.15;;;3.85;;
54745;SDS011;40640;48.130;11.356;2023-08-24T22:35:37;20.23;;;3.53;;
54745;SDS011;40640;48.130;11.356;2023-08-24T22:39:41;9.43;;;3.80;;
54745;SDS011;40640;48.130;11.356;2023-08-24T22:43:44;14.45;;;3.95;;
54745;SDS011;40640;48.130;11.356;2023-08-24T22:47:47;10.90;;;3.90;;
54745;SDS011;40640;48.130;11.356;2023-08-24T22:51:51;11.65;;;3.63;;
54745;SDS011;40640;48.130;11.356;2023-08-24T22:55:55;10.60;;;3.38;;
54745;SDS011;40640;48.130;11.356;2023-08-24T22:59:58;13.15;;;3.90;;
54745;SDS011;40640;48.130;11.356;2023-08-24T23:04:01;12.15;;;3.47;;
54745;SDS011;40640;48.130;11.356;2023-08-24T23:08:04;14.50;;;3.58;;
54745;SDS011;40640;48.130;11.356;2023-08-24T23:12:09;14.77;;;3.60;;
54745;SDS011;40640;48.130;11.356;2023-08-24T23:16:14;11.68;;;2.83;;
54745;SDS011;40640;48.130;11.356;2023-08-24T23:20:17;12.98;;;3.10;;
54745;SDS011;40640;48.130;11.356;2023-08-24T23:24:20;7.03;;;2.92;;
54745;SDS011;40640;48.130;11.356;2023-08-24T23:28:44;10.25;;;3.10;;
54745;SDS011;40640;48.130;11.356;2023-08-24T23:32:47;9.10;;;3.00;;
54745;SDS011;40640;48.130;11.356;2023-08-24T23:36:50;8.63;;;2.97;;
54745;SDS011;40640;48.130;11.356;2023-08-24T23:40:56;9.23;;;2.83;;
54745;SDS011;40640;48.130;11.356;2023-08-24T23:45:03;6.82;;;2.95;;
54745;SDS011;40640;48.130;11.356;2023-08-24T23:49:07;5.37;;;3.00;;
54745;SDS011;40640;48.130;11.356;2023-08-24T23:53:10;4.15;;;2.60;;
54745;SDS011;40640;48.130;11.356;2023-08-24T23:57:13;7.30;;;3.17;;
